createdAt,value
2022-10-16T00:00:45.241Z,11.90
2022-10-16T00:02:20.471Z,11.90
2022-10-16T00:03:54.448Z,11.90
2022-10-16T00:05:28.117Z,11.90
2022-10-16T00:07:01.575Z,11.90
2022-10-16T00:08:35.490Z,11.90
2022-10-16T00:10:18.177Z,11.90
2022-10-16T00:11:51.681Z,11.80
2022-10-16T00:13:27.947Z,11.90
2022-10-16T00:15:08.488Z,11.80
2022-10-16T00:16:42.337Z,11.80
2022-10-16T00:18:19.775Z,11.80
2022-10-16T00:19:54.369Z,11.80
2022-10-16T00:21:39.839Z,11.80
2022-10-16T00:23:25.174Z,11.80
2022-10-16T00:24:58.499Z,11.90
2022-10-16T00:26:40.294Z,11.80
2022-10-16T00:28:15.023Z,11.80
2022-10-16T00:29:52.351Z,11.80
2022-10-16T00:31:27.624Z,11.70
2022-10-16T00:33:02.364Z,11.70
2022-10-16T00:34:38.899Z,11.70
2022-10-16T00:36:15.751Z,11.70
2022-10-16T00:37:49.567Z,11.70
2022-10-16T00:39:27.137Z,11.70
2022-10-16T00:41:00.907Z,11.70
2022-10-16T00:42:35.648Z,11.70
2022-10-16T00:44:46.258Z,11.70
2022-10-16T00:46:29.301Z,11.70
2022-10-16T00:48:02.886Z,11.70
2022-10-16T00:49:41.424Z,11.70
2022-10-16T00:51:15.727Z,11.70
2022-10-16T00:52:52.368Z,11.70
2022-10-16T00:54:32.106Z,11.70
2022-10-16T00:56:08.042Z,11.60
2022-10-16T00:57:42.627Z,11.70
2022-10-16T00:59:24.241Z,11.70
2022-10-16T01:01:01.597Z,11.60
2022-10-16T01:02:46.512Z,11.60
2022-10-16T01:04:25.014Z,11.60
2022-10-16T01:06:26.964Z,11.60
2022-10-16T01:08:15.104Z,11.60
2022-10-16T01:10:09.550Z,11.60
2022-10-16T01:12:02.979Z,11.60
2022-10-16T01:13:50.300Z,11.60
2022-10-16T01:15:33.664Z,11.50
2022-10-16T01:17:20.061Z,11.60
2022-10-16T01:19:07.141Z,11.50
2022-10-16T01:20:54.709Z,11.50
2022-10-16T01:22:45.291Z,11.50
2022-10-16T01:24:34.831Z,11.50
2022-10-16T01:26:37.831Z,11.50
2022-10-16T01:28:19.175Z,11.50
2022-10-16T01:30:01.808Z,11.50
2022-10-16T01:31:40.821Z,11.40
2022-10-16T01:33:27.926Z,11.40
2022-10-16T01:35:10.451Z,11.40
2022-10-16T01:36:50.936Z,11.40
2022-10-16T01:38:34.970Z,11.30
2022-10-16T01:40:16.739Z,11.30
2022-10-16T01:42:00.156Z,11.30
2022-10-16T01:43:42.059Z,11.30
2022-10-16T01:45:24.244Z,11.30
2022-10-16T01:46:57.991Z,11.30
2022-10-16T01:48:34.815Z,11.30
2022-10-16T01:50:12.353Z,11.30
2022-10-16T01:51:50.432Z,11.30
2022-10-16T01:53:26.558Z,11.20
2022-10-16T01:55:03.683Z,11.30
2022-10-16T01:56:39.016Z,11.30
2022-10-16T01:58:16.326Z,11.30
2022-10-16T01:59:58.181Z,11.20
2022-10-16T02:01:41.119Z,11.20
2022-10-16T02:03:24.247Z,11.20
2022-10-16T02:05:13.396Z,11.20
2022-10-16T02:06:51.527Z,11.20
2022-10-16T02:08:30.156Z,11.20
2022-10-16T02:10:02.864Z,11.20
2022-10-16T02:11:36.662Z,11.20
2022-10-16T02:13:25.259Z,11.20
2022-10-16T02:15:03.406Z,11.20
2022-10-16T02:16:41.679Z,11.10
2022-10-16T02:18:18.768Z,11.20
2022-10-16T02:19:57.524Z,11.20
2022-10-16T02:21:41.968Z,11.20
2022-10-16T02:23:26.839Z,11.10
2022-10-16T02:25:07.105Z,11.10
2022-10-16T02:26:51.151Z,11.10
2022-10-16T02:28:32.885Z,11.10
2022-10-16T02:30:17.288Z,11.10
2022-10-16T02:31:58.932Z,11.10
2022-10-16T02:33:37.225Z,11.10
2022-10-16T02:35:15.945Z,11.10
2022-10-16T02:36:56.028Z,11.10
2022-10-16T02:38:33.803Z,11.10
2022-10-16T02:40:09.859Z,11.00
2022-10-16T02:41:45.086Z,11.10
2022-10-16T02:43:20.788Z,11.10
2022-10-16T02:44:54.012Z,11.00
2022-10-16T02:46:30.871Z,11.00
2022-10-16T02:48:04.121Z,11.10
2022-10-16T02:49:39.121Z,11.00
2022-10-16T02:51:12.497Z,11.00
2022-10-16T02:52:46.656Z,11.00
2022-10-16T02:54:23.677Z,11.00
2022-10-16T02:55:58.811Z,11.00
2022-10-16T02:57:32.551Z,10.90
2022-10-16T02:59:07.277Z,11.00
2022-10-16T03:00:41.001Z,11.00
2022-10-16T03:02:15.717Z,11.00
2022-10-16T03:03:51.182Z,11.00
2022-10-16T03:05:30.308Z,10.90
2022-10-16T03:07:04.588Z,10.90
2022-10-16T03:08:37.815Z,10.90
2022-10-16T03:10:13.847Z,10.90
2022-10-16T03:11:47.255Z,10.90
2022-10-16T03:13:22.088Z,10.90
2022-10-16T03:14:55.832Z,10.90
2022-10-16T03:16:32.180Z,11.00
2022-10-16T03:18:09.013Z,11.00
2022-10-16T03:19:44.258Z,10.90
2022-10-16T03:21:24.798Z,10.90
2022-10-16T03:22:58.635Z,10.90
2022-10-16T03:24:32.088Z,10.90
2022-10-16T03:26:07.605Z,10.90
2022-10-16T03:27:43.486Z,10.90
2022-10-16T03:29:18.070Z,10.90
2022-10-16T03:30:51.401Z,10.90
2022-10-16T03:32:29.133Z,10.90
2022-10-16T03:34:06.141Z,10.80
2022-10-16T03:35:41.722Z,10.80
2022-10-16T03:37:17.417Z,10.80
2022-10-16T03:38:52.696Z,10.80
2022-10-16T03:40:26.035Z,10.80
2022-10-16T03:42:00.982Z,10.80
2022-10-16T03:43:36.770Z,10.80
2022-10-16T03:45:12.492Z,10.70
2022-10-16T03:46:51.305Z,10.80
2022-10-16T03:48:28.308Z,10.80
2022-10-16T03:50:06.167Z,10.70
2022-10-16T03:51:39.516Z,10.80
2022-10-16T03:53:12.846Z,10.70
2022-10-16T03:54:49.384Z,10.80
2022-10-16T03:56:25.801Z,10.70
2022-10-16T03:57:59.633Z,10.70
2022-10-16T03:59:32.287Z,10.70
2022-10-16T04:01:11.339Z,10.70
2022-10-16T04:02:43.949Z,10.70
2022-10-16T04:04:19.807Z,10.80
2022-10-16T04:05:53.852Z,10.70
2022-10-16T04:07:29.672Z,10.80
2022-10-16T04:09:07.647Z,10.70
2022-10-16T04:10:44.786Z,10.70
2022-10-16T04:12:18.040Z,10.70
2022-10-16T04:13:53.777Z,10.70
2022-10-16T04:15:32.038Z,10.70
2022-10-16T04:17:14.137Z,10.70
2022-10-16T04:18:47.829Z,10.70
2022-10-16T04:20:23.882Z,10.70
2022-10-16T04:21:59.853Z,10.70
2022-10-16T04:23:36.403Z,10.70
2022-10-16T04:25:14.963Z,10.70
2022-10-16T04:26:53.561Z,10.70
2022-10-16T04:28:30.063Z,10.70
2022-10-16T04:30:05.116Z,10.70
2022-10-16T04:31:50.697Z,10.70
2022-10-16T04:33:24.157Z,10.70
2022-10-16T04:34:57.868Z,10.70
2022-10-16T04:36:31.375Z,10.70
2022-10-16T04:38:06.931Z,10.70
2022-10-16T04:39:40.148Z,10.70
2022-10-16T04:41:13.716Z,10.70
2022-10-16T04:42:46.005Z,10.70
2022-10-16T04:44:24.526Z,10.70
2022-10-16T04:45:57.372Z,10.70
2022-10-16T04:47:33.278Z,10.70
2022-10-16T04:49:07.618Z,10.70
2022-10-16T04:50:41.184Z,10.70
2022-10-16T04:52:18.117Z,10.70
2022-10-16T04:53:53.802Z,10.70
2022-10-16T04:55:29.480Z,10.70
2022-10-16T04:57:05.754Z,10.70
2022-10-16T04:58:41.658Z,10.70
2022-10-16T05:00:15.735Z,10.70
2022-10-16T05:01:49.558Z,10.70
2022-10-16T05:03:33.214Z,10.70
2022-10-16T05:05:09.521Z,10.70
2022-10-16T05:06:44.689Z,10.70
2022-10-16T05:08:18.913Z,10.70
2022-10-16T05:09:52.384Z,10.70
2022-10-16T05:11:28.163Z,10.60
2022-10-16T05:13:03.581Z,10.70
2022-10-16T05:14:36.978Z,10.70
2022-10-16T05:16:13.264Z,10.70
2022-10-16T05:17:48.765Z,10.60
2022-10-16T05:19:27.713Z,10.70
2022-10-16T05:21:01.842Z,10.70
2022-10-16T05:22:35.348Z,10.60
2022-10-16T05:24:10.106Z,10.60
2022-10-16T05:25:47.947Z,10.60
2022-10-16T05:27:20.342Z,10.60
2022-10-16T05:28:53.921Z,10.60
2022-10-16T05:30:29.506Z,10.60
2022-10-16T05:32:04.893Z,10.50
2022-10-16T05:33:38.320Z,10.60
2022-10-16T05:35:14.224Z,10.60
2022-10-16T05:36:46.631Z,10.50
2022-10-16T05:38:23.072Z,10.50
2022-10-16T05:39:59.082Z,10.50
2022-10-16T05:41:32.700Z,10.50
2022-10-16T05:43:07.704Z,10.50
2022-10-16T05:44:42.899Z,10.50
2022-10-16T05:46:16.997Z,10.50
2022-10-16T05:47:50.413Z,10.50
2022-10-16T05:49:24.174Z,10.50
2022-10-16T05:51:07.510Z,10.50
2022-10-16T05:52:43.720Z,10.50
2022-10-16T05:54:20.150Z,10.50
2022-10-16T05:55:58.915Z,10.50
2022-10-16T05:57:32.507Z,10.50
2022-10-16T05:59:09.198Z,10.40
2022-10-16T06:00:44.900Z,10.40
2022-10-16T06:02:20.789Z,10.50
2022-10-16T06:03:57.643Z,10.40
2022-10-16T06:05:30.732Z,10.40
2022-10-16T06:07:06.574Z,10.40
2022-10-16T06:08:40.147Z,10.40
2022-10-16T06:10:15.687Z,10.40
2022-10-16T06:11:51.019Z,10.40
2022-10-16T06:13:25.612Z,10.40
2022-10-16T06:14:58.997Z,10.40
2022-10-16T06:16:35.187Z,10.40
2022-10-16T06:18:08.485Z,10.40
2022-10-16T06:19:42.135Z,10.50
2022-10-16T06:21:19.469Z,10.40
2022-10-16T06:22:54.127Z,10.40
2022-10-16T06:24:27.658Z,10.40
2022-10-16T06:26:08.002Z,10.40
2022-10-16T06:27:50.698Z,10.40
2022-10-16T06:29:26.744Z,10.40
2022-10-16T06:31:07.396Z,10.40
2022-10-16T06:32:41.972Z,10.40
2022-10-16T06:34:17.148Z,10.40
2022-10-16T06:35:49.419Z,10.40
2022-10-16T06:37:27.643Z,10.50
2022-10-16T06:39:08.147Z,10.50
2022-10-16T06:40:41.836Z,10.40
2022-10-16T06:42:16.413Z,10.50
2022-10-16T06:43:50.383Z,10.50
2022-10-16T06:45:30.018Z,10.50
2022-10-16T06:47:03.361Z,10.50
2022-10-16T06:48:36.995Z,10.50
2022-10-16T06:50:16.171Z,10.50
2022-10-16T06:51:51.144Z,10.60
2022-10-16T06:53:25.065Z,10.60
2022-10-16T06:55:03.832Z,10.60
2022-10-16T06:56:40.154Z,10.60
2022-10-16T06:58:14.995Z,10.60
2022-10-16T06:59:54.516Z,10.60
2022-10-16T07:01:32.168Z,10.70
2022-10-16T07:03:09.304Z,10.70
2022-10-16T07:04:42.858Z,10.70
2022-10-16T07:06:25.057Z,10.80
2022-10-16T07:08:00.109Z,10.80
2022-10-16T07:09:33.429Z,10.80
2022-10-16T07:11:11.357Z,10.90
2022-10-16T07:12:46.765Z,10.90
2022-10-16T07:14:25.908Z,11.00
2022-10-16T07:16:08.679Z,11.00
2022-10-16T07:17:44.892Z,11.00
2022-10-16T07:19:19.091Z,11.00
2022-10-16T07:20:52.367Z,11.00
2022-10-16T07:22:28.622Z,11.20
2022-10-16T07:24:08.524Z,11.10
2022-10-16T07:25:41.865Z,11.20
2022-10-16T07:27:18.005Z,11.20
2022-10-16T07:28:50.940Z,11.30
2022-10-16T07:30:24.409Z,11.30
2022-10-16T07:31:59.341Z,11.30
2022-10-16T07:33:34.167Z,11.40
2022-10-16T07:35:09.014Z,11.40
2022-10-16T07:36:53.888Z,11.50
2022-10-16T07:38:27.159Z,11.60
2022-10-16T07:40:03.796Z,11.60
2022-10-16T07:41:38.714Z,11.70
2022-10-16T07:43:17.695Z,11.70
2022-10-16T07:44:56.405Z,11.80
2022-10-16T07:46:36.562Z,11.90
2022-10-16T07:48:13.393Z,11.90
2022-10-16T07:49:54.082Z,12.10
2022-10-16T07:51:30.994Z,12.00
2022-10-16T07:53:16.925Z,12.10
2022-10-16T07:54:53.115Z,12.20
2022-10-16T07:56:49.238Z,12.40
2022-10-16T07:58:27.897Z,12.30
2022-10-16T08:00:03.090Z,12.40
2022-10-16T08:02:05.410Z,12.40
2022-10-16T08:03:43.964Z,12.50
2022-10-16T08:05:19.045Z,12.60
2022-10-16T08:07:10.663Z,12.60
2022-10-16T08:08:49.268Z,12.70
2022-10-16T08:10:27.156Z,12.70
2022-10-16T08:12:14.644Z,12.80
2022-10-16T08:13:53.248Z,12.80
2022-10-16T08:15:28.509Z,12.90
2022-10-16T08:17:04.979Z,12.90
2022-10-16T08:18:43.083Z,12.90
2022-10-16T08:20:19.707Z,13.00
2022-10-16T08:21:59.862Z,13.00
2022-10-16T08:23:34.836Z,13.10
2022-10-16T08:25:12.069Z,13.10
2022-10-16T08:26:45.628Z,13.20
2022-10-16T08:28:23.969Z,13.20
2022-10-16T08:29:59.367Z,13.20
2022-10-16T08:31:32.802Z,13.30
2022-10-16T08:33:12.118Z,13.40
2022-10-16T08:34:46.885Z,13.40
2022-10-16T08:36:26.900Z,13.50
2022-10-16T08:38:02.546Z,13.50
2022-10-16T08:39:36.472Z,13.60
2022-10-16T08:41:42.050Z,13.70
2022-10-16T08:43:37.218Z,13.70
2022-10-16T08:45:44.247Z,13.80
2022-10-16T08:47:46.684Z,13.80
2022-10-16T08:49:25.534Z,13.90
2022-10-16T08:51:01.872Z,14.00
2022-10-16T08:52:40.617Z,13.90
2022-10-16T08:54:33.168Z,14.10
2022-10-16T08:56:07.377Z,14.10
2022-10-16T08:57:40.834Z,14.10
2022-10-16T08:59:18.926Z,14.20
2022-10-16T09:01:05.325Z,14.30
2022-10-16T09:02:47.648Z,14.30
2022-10-16T09:05:05.658Z,14.30
2022-10-16T09:06:52.385Z,14.40
2022-10-16T09:08:39.183Z,14.50
2022-10-16T09:10:33.984Z,14.60
2022-10-16T09:12:18.015Z,14.60
2022-10-16T09:13:59.880Z,14.70
2022-10-16T09:15:45.348Z,14.70
2022-10-16T09:17:38.265Z,14.80
2022-10-16T09:19:21.655Z,14.90
2022-10-16T09:21:08.885Z,15.00
2022-10-16T09:22:57.325Z,15.00
2022-10-16T09:24:32.334Z,15.10
2022-10-16T09:26:13.006Z,15.20
2022-10-16T09:27:53.170Z,15.30
2022-10-16T09:29:31.272Z,15.30
2022-10-16T09:31:06.044Z,15.40
2022-10-16T09:32:47.877Z,15.50
2022-10-16T09:34:33.788Z,15.50
2022-10-16T09:36:18.742Z,15.70
2022-10-16T09:38:10.442Z,15.70
2022-10-16T09:39:52.881Z,15.80
2022-10-16T09:41:32.217Z,15.80
2022-10-16T09:43:23.950Z,15.90
2022-10-16T09:45:01.884Z,16.00
2022-10-16T09:46:40.611Z,16.10
2022-10-16T09:48:21.045Z,16.20
2022-10-16T09:49:58.766Z,16.30
2022-10-16T09:51:36.461Z,16.30
2022-10-16T09:53:16.138Z,16.40
2022-10-16T09:55:00.589Z,16.50
2022-10-16T09:56:37.772Z,16.60
2022-10-16T09:58:24.933Z,16.70
2022-10-16T10:00:00.780Z,16.70
2022-10-16T10:01:41.105Z,16.80
2022-10-16T10:03:28.793Z,16.90
2022-10-16T10:05:29.010Z,17.00
2022-10-16T10:07:03.968Z,17.10
2022-10-16T10:08:39.952Z,17.20
2022-10-16T10:10:28.002Z,17.30
2022-10-16T10:12:08.619Z,17.30
2022-10-16T10:13:48.621Z,17.40
2022-10-16T10:15:24.965Z,17.50
2022-10-16T10:17:17.461Z,17.60
2022-10-16T10:19:00.885Z,17.70
2022-10-16T10:20:44.475Z,17.70
2022-10-16T10:22:44.124Z,17.80
2022-10-16T10:24:20.605Z,17.90
2022-10-16T10:26:01.333Z,17.90
2022-10-16T10:27:50.158Z,18.00
2022-10-16T10:29:46.636Z,18.00
2022-10-16T10:31:35.759Z,18.10
2022-10-16T10:33:34.336Z,18.10
2022-10-16T10:35:20.928Z,18.10
2022-10-16T10:37:07.821Z,18.20
2022-10-16T10:38:53.841Z,18.20
2022-10-16T10:40:42.605Z,18.30
2022-10-16T10:42:36.795Z,18.30
2022-10-16T10:44:25.982Z,18.40
2022-10-16T10:46:06.682Z,18.40
2022-10-16T10:47:54.714Z,18.40
2022-10-16T10:49:50.852Z,18.40
2022-10-16T10:51:33.798Z,18.50
2022-10-16T10:53:21.753Z,18.50
2022-10-16T10:55:08.856Z,18.50
2022-10-16T10:56:53.944Z,18.60
2022-10-16T10:59:17.193Z,18.60
2022-10-16T11:01:05.249Z,18.60
2022-10-16T11:02:50.574Z,18.60
2022-10-16T11:05:00.848Z,18.70
2022-10-16T11:06:41.476Z,18.70
2022-10-16T11:08:21.417Z,18.70
2022-10-16T11:10:05.311Z,18.70
2022-10-16T11:11:47.297Z,18.70
2022-10-16T11:13:37.766Z,18.80
2022-10-16T11:15:21.264Z,18.80
2022-10-16T11:17:01.505Z,18.90
2022-10-16T11:18:54.044Z,19.00
2022-10-16T11:20:31.820Z,19.00
2022-10-16T11:22:17.612Z,19.00
2022-10-16T11:23:57.216Z,19.10
2022-10-16T11:25:34.471Z,19.10
2022-10-16T11:27:19.544Z,19.10
2022-10-16T11:29:01.130Z,19.10
2022-10-16T11:30:46.797Z,19.10
2022-10-16T11:32:32.074Z,19.10
2022-10-16T11:34:17.894Z,19.20
2022-10-16T11:36:01.370Z,19.10
2022-10-16T11:37:44.999Z,19.10
2022-10-16T11:39:23.557Z,19.10
2022-10-16T11:41:10.225Z,19.10
2022-10-16T11:42:52.748Z,19.10
2022-10-16T11:44:44.106Z,19.20
2022-10-16T11:46:25.575Z,19.10
2022-10-16T11:48:08.714Z,19.20
2022-10-16T11:49:49.693Z,19.20
2022-10-16T11:51:35.705Z,19.20
2022-10-16T11:53:26.770Z,19.20
2022-10-16T11:55:17.328Z,19.20
2022-10-16T11:57:03.733Z,19.20
2022-10-16T11:58:48.028Z,19.30
2022-10-16T12:00:30.071Z,19.20
2022-10-16T12:02:35.690Z,19.30
2022-10-16T12:04:22.813Z,19.30
2022-10-16T12:06:25.363Z,19.30
2022-10-16T12:08:11.951Z,19.30
2022-10-16T12:09:47.774Z,19.30
2022-10-16T12:11:36.861Z,19.30
2022-10-16T12:13:33.982Z,19.30
2022-10-16T12:15:57.733Z,19.40
2022-10-16T12:17:40.073Z,19.40
2022-10-16T12:19:17.174Z,19.40
2022-10-16T12:20:59.841Z,19.40
2022-10-16T12:22:38.067Z,19.40
2022-10-16T12:24:34.645Z,19.40
2022-10-16T12:26:09.988Z,19.40
2022-10-16T12:27:43.970Z,19.40
2022-10-16T12:29:35.232Z,19.30
2022-10-16T12:31:13.256Z,19.30
2022-10-16T12:32:57.430Z,19.30
2022-10-16T12:34:39.567Z,19.30
2022-10-16T12:36:31.105Z,19.30
2022-10-16T12:38:17.698Z,19.30
2022-10-16T12:39:55.642Z,19.40
2022-10-16T12:41:32.688Z,19.40
2022-10-16T12:43:29.911Z,19.40
2022-10-16T12:45:30.028Z,19.40
2022-10-16T12:47:04.755Z,19.30
2022-10-16T12:48:55.276Z,19.30
2022-10-16T12:50:38.643Z,19.30
2022-10-16T12:52:37.057Z,19.30
2022-10-16T12:54:27.753Z,19.30
2022-10-16T12:56:17.269Z,19.20
2022-10-16T12:58:26.665Z,19.20
2022-10-16T13:00:17.594Z,19.20
2022-10-16T13:02:19.726Z,19.20
2022-10-16T13:04:21.334Z,19.10
2022-10-16T13:06:19.291Z,19.10
2022-10-16T13:08:16.661Z,19.10
2022-10-16T13:10:08.455Z,19.10
2022-10-16T13:12:15.091Z,19.10
2022-10-16T13:14:14.024Z,19.10
2022-10-16T13:16:07.699Z,19.10
2022-10-16T13:17:55.793Z,19.10
2022-10-16T13:19:40.224Z,19.10
2022-10-16T13:21:33.766Z,19.10
2022-10-16T13:23:25.649Z,19.10
2022-10-16T13:25:22.708Z,19.10
2022-10-16T13:27:09.261Z,19.10
2022-10-16T13:28:45.958Z,19.10
2022-10-16T13:30:28.094Z,19.10
2022-10-16T13:32:13.765Z,19.10
2022-10-16T13:33:55.505Z,19.10
2022-10-16T13:35:34.851Z,19.10
2022-10-16T13:37:27.745Z,19.00
2022-10-16T13:39:15.324Z,19.10
2022-10-16T13:40:59.933Z,19.10
2022-10-16T13:42:36.359Z,19.10
2022-10-16T13:44:18.731Z,19.10
2022-10-16T13:46:03.348Z,19.10
2022-10-16T13:47:38.296Z,19.10
2022-10-16T13:49:18.792Z,19.10
2022-10-16T13:51:08.734Z,19.10
2022-10-16T13:52:50.829Z,19.10
2022-10-16T13:54:26.501Z,19.10
2022-10-16T13:56:01.576Z,19.10
2022-10-16T13:57:35.303Z,19.10
2022-10-16T13:59:29.599Z,19.10
2022-10-16T14:01:06.452Z,19.00
2022-10-16T14:02:44.637Z,19.10
2022-10-16T14:04:18.473Z,19.10
2022-10-16T14:05:59.877Z,19.10
2022-10-16T14:07:39.218Z,19.10
2022-10-16T14:09:26.988Z,19.10
2022-10-16T14:11:03.201Z,19.10
2022-10-16T14:12:37.360Z,19.10
2022-10-16T14:14:14.249Z,19.10
2022-10-16T14:15:53.256Z,19.10
2022-10-16T14:17:35.669Z,19.10
2022-10-16T14:19:23.989Z,19.10
2022-10-16T14:21:05.017Z,19.00
2022-10-16T14:22:44.684Z,19.00
2022-10-16T14:24:29.409Z,19.00
2022-10-16T14:26:18.620Z,19.00
2022-10-16T14:28:04.190Z,19.00
2022-10-16T14:29:37.610Z,19.00
2022-10-16T14:31:29.923Z,19.00
2022-10-16T14:33:06.044Z,19.00
2022-10-16T14:34:41.462Z,19.00
2022-10-16T14:36:20.322Z,18.90
2022-10-16T14:37:55.833Z,18.90
2022-10-16T14:39:31.045Z,18.90
2022-10-16T14:41:06.929Z,18.90
2022-10-16T14:42:45.970Z,18.80
2022-10-16T14:44:27.308Z,18.90
2022-10-16T14:46:13.166Z,18.80
2022-10-16T14:47:55.549Z,18.80
2022-10-16T14:49:29.260Z,18.80
2022-10-16T14:51:03.853Z,18.80
2022-10-16T14:52:40.347Z,18.80
2022-10-16T14:54:15.225Z,18.70
2022-10-16T14:55:54.676Z,18.70
2022-10-16T14:57:33.479Z,18.70
2022-10-16T14:59:07.339Z,18.70
2022-10-16T15:00:41.853Z,18.70
2022-10-16T15:02:27.260Z,18.70
2022-10-16T15:04:00.602Z,18.70
2022-10-16T15:05:34.674Z,18.70
2022-10-16T15:07:11.981Z,18.60
2022-10-16T15:08:45.853Z,18.60
2022-10-16T15:10:23.858Z,18.60
2022-10-16T15:11:57.112Z,18.60
2022-10-16T15:13:30.422Z,18.50
2022-10-16T15:15:03.949Z,18.50
2022-10-16T15:16:37.665Z,18.50
2022-10-16T15:18:15.693Z,18.50
2022-10-16T15:19:49.149Z,18.50
2022-10-16T15:21:27.356Z,18.40
2022-10-16T15:23:04.717Z,18.40
2022-10-16T15:24:38.286Z,18.30
2022-10-16T15:26:11.996Z,18.40
2022-10-16T15:27:44.506Z,18.30
2022-10-16T15:29:18.058Z,18.30
2022-10-16T15:30:53.305Z,18.30
2022-10-16T15:32:26.759Z,18.30
2022-10-16T15:34:05.046Z,18.20
2022-10-16T15:35:38.729Z,18.20
2022-10-16T15:37:14.561Z,18.20
2022-10-16T15:38:49.326Z,18.10
2022-10-16T15:40:24.539Z,18.10
2022-10-16T15:41:59.496Z,18.10
2022-10-16T15:43:32.867Z,18.10
2022-10-16T15:45:08.086Z,18.00
2022-10-16T15:46:41.433Z,18.00
2022-10-16T15:48:16.608Z,18.00
2022-10-16T15:49:51.606Z,18.00
2022-10-16T15:51:25.144Z,17.90
2022-10-16T15:52:58.840Z,17.90
2022-10-16T15:54:33.472Z,17.90
2022-10-16T15:56:12.197Z,17.80
2022-10-16T15:57:47.088Z,17.80
2022-10-16T15:59:20.349Z,17.80
2022-10-16T16:00:57.713Z,17.70
2022-10-16T16:02:31.354Z,17.70
2022-10-16T16:04:15.255Z,17.70
2022-10-16T16:06:03.551Z,17.70
2022-10-16T16:07:38.578Z,17.60
2022-10-16T16:09:16.694Z,17.60
2022-10-16T16:11:01.188Z,17.60
2022-10-16T16:12:35.214Z,17.50
2022-10-16T16:14:13.814Z,17.50
2022-10-16T16:15:47.085Z,17.50
2022-10-16T16:17:20.548Z,17.50
2022-10-16T16:18:56.242Z,17.50
2022-10-16T16:20:29.984Z,17.40
2022-10-16T16:22:03.273Z,17.40
2022-10-16T16:23:37.501Z,17.30
2022-10-16T16:25:11.338Z,17.30
2022-10-16T16:26:46.040Z,17.30
2022-10-16T16:28:19.459Z,17.30
2022-10-16T16:29:52.977Z,17.20
2022-10-16T16:31:30.019Z,17.20
2022-10-16T16:33:05.455Z,17.20
2022-10-16T16:34:38.817Z,17.20
2022-10-16T16:36:18.875Z,17.10
2022-10-16T16:37:53.340Z,17.10
2022-10-16T16:39:26.719Z,17.10
2022-10-16T16:41:00.008Z,17.10
2022-10-16T16:42:36.123Z,17.00
2022-10-16T16:44:19.167Z,17.00
2022-10-16T16:45:52.563Z,17.00
2022-10-16T16:47:28.499Z,17.00
2022-10-16T16:49:05.764Z,16.90
2022-10-16T16:50:48.320Z,16.90
2022-10-16T16:52:27.261Z,16.90
2022-10-16T16:54:01.282Z,16.90
2022-10-16T16:55:35.778Z,16.80
2022-10-16T16:57:09.502Z,16.80
2022-10-16T16:58:47.655Z,16.80
2022-10-16T17:00:22.923Z,16.80
2022-10-16T17:01:57.327Z,16.80
2022-10-16T17:03:31.990Z,16.80
2022-10-16T17:05:05.879Z,16.70
2022-10-16T17:06:41.276Z,16.60
2022-10-16T17:08:14.955Z,16.60
2022-10-16T17:09:48.628Z,16.60
2022-10-16T17:11:25.652Z,16.60
2022-10-16T17:13:02.828Z,16.60
2022-10-16T17:14:37.489Z,16.50
2022-10-16T17:16:11.699Z,16.50
2022-10-16T17:17:44.941Z,16.50
2022-10-16T17:19:21.134Z,16.50
2022-10-16T17:20:54.796Z,16.40
2022-10-16T17:22:28.612Z,16.40
2022-10-16T17:24:05.752Z,16.40
2022-10-16T17:25:40.126Z,16.40
2022-10-16T17:27:15.378Z,16.30
2022-10-16T17:28:54.053Z,16.30
2022-10-16T17:30:31.321Z,16.20
2022-10-16T17:32:10.269Z,16.30
2022-10-16T17:33:45.769Z,16.20
2022-10-16T17:35:20.735Z,16.20
2022-10-16T17:36:54.498Z,16.20
2022-10-16T17:38:28.566Z,16.20
2022-10-16T17:40:02.373Z,16.10
2022-10-16T17:41:38.307Z,16.20
2022-10-16T17:43:14.446Z,16.10
2022-10-16T17:44:49.793Z,16.00
2022-10-16T17:46:31.165Z,16.00
2022-10-16T17:48:06.809Z,16.00
2022-10-16T17:49:40.181Z,16.00
2022-10-16T17:51:16.455Z,16.00
2022-10-16T17:52:52.421Z,15.90
2022-10-16T17:54:27.509Z,15.90
2022-10-16T17:56:08.142Z,15.90
2022-10-16T17:57:42.901Z,15.90
2022-10-16T17:59:18.732Z,15.80
2022-10-16T18:00:52.108Z,15.80
2022-10-16T18:02:27.252Z,15.80
2022-10-16T18:04:07.267Z,15.80
2022-10-16T18:05:42.035Z,15.70
2022-10-16T18:07:17.272Z,15.70
2022-10-16T18:08:50.640Z,15.70
2022-10-16T18:10:23.985Z,15.70
2022-10-16T18:12:00.616Z,15.70
2022-10-16T18:13:34.307Z,15.60
2022-10-16T18:15:09.641Z,15.60
2022-10-16T18:16:45.070Z,15.60
2022-10-16T18:18:25.945Z,15.60
2022-10-16T18:20:06.758Z,15.60
2022-10-16T18:21:42.405Z,15.60
2022-10-16T18:23:18.593Z,15.60
2022-10-16T18:24:52.305Z,15.50
2022-10-16T18:26:29.769Z,15.50
2022-10-16T18:28:06.636Z,15.50
2022-10-16T18:29:40.868Z,15.50
2022-10-16T18:31:16.973Z,15.50
2022-10-16T18:32:53.800Z,15.40
2022-10-16T18:34:33.720Z,15.40
2022-10-16T18:36:10.113Z,15.40
2022-10-16T18:37:46.004Z,15.40
2022-10-16T18:39:23.745Z,15.40
2022-10-16T18:40:57.584Z,15.40
2022-10-16T18:42:34.585Z,15.30
2022-10-16T18:44:10.607Z,15.40
2022-10-16T18:45:44.032Z,15.30
2022-10-16T18:47:17.454Z,15.30
2022-10-16T18:48:52.232Z,15.30
2022-10-16T18:50:27.180Z,15.30
2022-10-16T18:52:03.185Z,15.30
2022-10-16T18:53:36.654Z,15.30
2022-10-16T18:55:11.416Z,15.30
2022-10-16T18:56:45.416Z,15.20
2022-10-16T18:58:18.754Z,15.20
2022-10-16T18:59:52.079Z,15.20
2022-10-16T19:01:26.767Z,15.20
2022-10-16T19:03:00.064Z,15.20
2022-10-16T19:04:33.574Z,15.10
2022-10-16T19:06:12.136Z,15.10
2022-10-16T19:07:50.408Z,15.10
2022-10-16T19:09:25.775Z,15.10
2022-10-16T19:11:04.588Z,15.10
2022-10-16T19:12:38.404Z,15.00
2022-10-16T19:14:21.168Z,15.00
2022-10-16T19:16:03.675Z,15.00
2022-10-16T19:17:38.371Z,15.00
2022-10-16T19:19:16.249Z,15.00
2022-10-16T19:20:53.777Z,14.90
2022-10-16T19:22:51.490Z,14.90
2022-10-16T19:24:25.557Z,14.90
2022-10-16T19:26:05.263Z,14.90
2022-10-16T19:27:41.485Z,14.90
2022-10-16T19:29:15.133Z,14.90
2022-10-16T19:30:48.528Z,14.90
2022-10-16T19:32:22.102Z,14.90
2022-10-16T19:33:59.095Z,14.90
2022-10-16T19:35:32.605Z,14.80
2022-10-16T19:37:06.461Z,14.80
2022-10-16T19:38:44.737Z,14.80
2022-10-16T19:40:19.359Z,14.80
2022-10-16T19:41:53.160Z,14.80
2022-10-16T19:43:26.730Z,14.80
2022-10-16T19:45:00.350Z,14.80
2022-10-16T19:46:37.471Z,14.80
2022-10-16T19:48:10.807Z,14.80
2022-10-16T19:49:44.330Z,14.80
2022-10-16T19:51:20.113Z,14.80
2022-10-16T19:52:53.679Z,14.80
2022-10-16T19:54:29.674Z,14.70
2022-10-16T19:56:03.065Z,14.70
2022-10-16T19:57:37.659Z,14.70
2022-10-16T19:59:16.151Z,14.70
2022-10-16T20:00:50.229Z,14.70
2022-10-16T20:02:23.617Z,14.70
2022-10-16T20:03:57.520Z,14.70
2022-10-16T20:05:32.020Z,14.70
2022-10-16T20:07:05.816Z,14.70
2022-10-16T20:08:45.674Z,14.70
2022-10-16T20:10:20.419Z,14.70
2022-10-16T20:11:53.854Z,14.70
2022-10-16T20:13:28.711Z,14.70
2022-10-16T20:15:02.102Z,14.70
2022-10-16T20:16:36.313Z,14.70
2022-10-16T20:18:09.557Z,14.70
2022-10-16T20:19:42.845Z,14.70
2022-10-16T20:21:18.927Z,14.70
2022-10-16T20:22:52.267Z,14.70
2022-10-16T20:24:25.701Z,14.70
2022-10-16T20:26:04.037Z,14.70
2022-10-16T20:27:37.799Z,14.70
2022-10-16T20:29:11.387Z,14.70
2022-10-16T20:30:47.191Z,14.70
2022-10-16T20:32:20.445Z,14.70
2022-10-16T20:33:55.919Z,14.70
2022-10-16T20:35:29.400Z,14.80
2022-10-16T20:37:02.721Z,14.70
2022-10-16T20:38:37.505Z,14.70
2022-10-16T20:40:12.744Z,14.70
2022-10-16T20:41:51.073Z,14.70
2022-10-16T20:43:24.430Z,14.70
2022-10-16T20:44:58.221Z,14.70
2022-10-16T20:46:31.560Z,14.70
2022-10-16T20:48:05.512Z,14.70
2022-10-16T20:49:41.098Z,14.60
2022-10-16T20:51:17.431Z,14.60
2022-10-16T20:52:51.338Z,14.70
2022-10-16T20:54:24.804Z,14.60
2022-10-16T20:56:02.054Z,14.60
2022-10-16T20:57:36.820Z,14.60
2022-10-16T20:59:12.156Z,14.60
2022-10-16T21:00:45.729Z,14.60
2022-10-16T21:02:19.002Z,14.60
2022-10-16T21:03:55.969Z,14.50
2022-10-16T21:05:31.284Z,14.50
2022-10-16T21:07:04.693Z,14.40
2022-10-16T21:08:38.882Z,14.50
2022-10-16T21:10:12.638Z,14.40
2022-10-16T21:11:45.948Z,14.40
2022-10-16T21:13:19.627Z,14.40
2022-10-16T21:15:13.843Z,14.40
2022-10-16T21:16:48.015Z,14.30